createdAt,value
2022-08-07T00:02:36.132Z,9.00
2022-08-07T00:05:05.628Z,9.00
2022-08-07T00:07:40.122Z,9.00
2022-08-07T00:10:30.035Z,8.67
2022-08-07T00:13:24.038Z,10.00
2022-08-07T00:15:53.312Z,8.00
2022-08-07T00:18:28.167Z,9.00
2022-08-07T00:21:08.186Z,9.67
2022-08-07T00:23:54.808Z,9.67
2022-08-07T00:26:49.058Z,9.00
2022-08-07T00:29:13.919Z,9.33
2022-08-07T00:31:44.384Z,8.00
2022-08-07T00:34:18.443Z,8.00
2022-08-07T00:36:50.312Z,7.33
2022-08-07T00:39:22.336Z,8.00
2022-08-07T00:42:04.782Z,7.00
2022-08-07T00:44:38.407Z,7.33
2022-08-07T00:47:15.954Z,7.67
2022-08-07T00:50:20.696Z,5.67
2022-08-07T00:52:47.710Z,7.67
2022-08-07T00:55:17.444Z,7.00
2022-08-07T00:57:56.193Z,7.00
2022-08-07T01:00:25.857Z,7.67
2022-08-07T01:02:55.565Z,6.80
2022-08-07T01:05:24.930Z,6.00
2022-08-07T01:07:55.268Z,5.00
2022-08-07T01:10:25.050Z,6.60
2022-08-07T01:12:54.653Z,7.00
2022-08-07T01:15:35.857Z,7.00
2022-08-07T01:18:17.713Z,7.00
2022-08-07T01:21:22.835Z,5.40
2022-08-07T01:23:56.013Z,5.80
2022-08-07T01:26:26.172Z,6.20
2022-08-07T01:28:56.325Z,5.67
2022-08-07T01:31:42.414Z,6.00
2022-08-07T01:34:14.412Z,6.00
2022-08-07T01:36:44.435Z,5.40
2022-08-07T01:39:22.523Z,5.00
2022-08-07T01:41:55.260Z,5.40
2022-08-07T01:44:38.012Z,5.00
2022-08-07T01:47:14.353Z,4.60
2022-08-07T01:49:58.278Z,5.40
2022-08-07T01:52:32.188Z,5.00
2022-08-07T01:55:04.343Z,5.60
2022-08-07T01:58:01.127Z,5.00
2022-08-07T02:00:30.291Z,6.40
2022-08-07T02:03:18.230Z,5.40
2022-08-07T02:06:08.902Z,5.40
2022-08-07T02:08:56.509Z,3.40
2022-08-07T02:11:57.769Z,4.20
2022-08-07T02:14:35.913Z,5.33
2022-08-07T02:17:09.030Z,5.20
2022-08-07T02:20:04.739Z,5.00
2022-08-07T02:22:34.833Z,5.00
2022-08-07T02:25:17.451Z,5.20
2022-08-07T02:27:52.310Z,5.00
2022-08-07T02:30:22.174Z,4.00
2022-08-07T02:33:07.508Z,5.20
2022-08-07T02:36:27.133Z,4.60
2022-08-07T02:38:37.622Z,3.00
2022-08-07T02:41:10.849Z,4.60
2022-08-07T02:43:47.645Z,4.80
2022-08-07T02:46:22.932Z,4.00
2022-08-07T02:48:55.431Z,5.80
2022-08-07T02:51:42.921Z,5.00
2022-08-07T02:54:18.837Z,4.80
2022-08-07T02:56:50.466Z,5.00
2022-08-07T02:59:27.708Z,5.00
2022-08-07T03:02:02.220Z,4.60
2022-08-07T03:04:32.765Z,4.80
2022-08-07T03:07:07.326Z,5.20
2022-08-07T03:09:44.737Z,4.00
2022-08-07T03:12:22.479Z,4.60
2022-08-07T03:15:02.585Z,5.00
2022-08-07T03:17:54.013Z,3.67
2022-08-07T03:20:25.095Z,4.00
2022-08-07T03:22:55.162Z,3.67
2022-08-07T03:25:27.038Z,3.60
2022-08-07T03:28:36.980Z,3.25
2022-08-07T03:31:14.239Z,3.00
2022-08-07T03:33:48.967Z,3.00
2022-08-07T03:36:22.084Z,2.60
2022-08-07T03:39:05.584Z,3.00
2022-08-07T03:41:41.767Z,2.67
2022-08-07T03:44:12.580Z,2.00
2022-08-07T03:47:14.023Z,2.00
2022-08-07T03:49:35.581Z,3.00
2022-08-07T03:52:07.009Z,1.40
2022-08-07T03:54:54.321Z,2.67
2022-08-07T03:58:34.143Z,2.80
2022-08-07T04:00:21.041Z,2.00
2022-08-07T04:02:59.518Z,2.00
2022-08-07T04:05:28.800Z,1.67
2022-08-07T04:08:16.260Z,2.80
2022-08-07T04:10:54.616Z,1.40
2022-08-07T04:14:32.897Z,3.00
2022-08-07T04:16:32.301Z,2.60
2022-08-07T04:19:04.132Z,1.80
2022-08-07T04:21:47.953Z,1.00
2022-08-07T04:24:33.663Z,1.00
2022-08-07T04:27:20.312Z,2.00
2022-08-07T04:30:02.187Z,2.60
2022-08-07T04:32:35.269Z,2.00
2022-08-07T04:35:11.381Z,1.60
2022-08-07T04:38:02.741Z,2.00
2022-08-07T04:40:30.013Z,2.33
2022-08-07T04:43:03.530Z,2.00
2022-08-07T04:46:12.348Z,2.00
2022-08-07T04:49:01.588Z,2.00
2022-08-07T04:52:28.135Z,2.00
2022-08-07T04:58:07.303Z,2.00
2022-08-07T04:58:49.611Z,2.00
2022-08-07T05:02:20.478Z,1.00
2022-08-07T05:05:11.312Z,1.60
2022-08-07T05:08:07.863Z,2.00
2022-08-07T05:10:45.906Z,2.67
2022-08-07T05:14:56.530Z,2.00
2022-08-07T05:16:21.349Z,2.00
2022-08-07T05:19:02.597Z,2.00
2022-08-07T05:21:59.999Z,1.60
2022-08-07T05:24:30.521Z,1.60
2022-08-07T05:28:02.910Z,1.57
2022-08-07T05:30:05.455Z,2.00
2022-08-07T05:32:35.667Z,2.00
2022-08-07T05:35:07.756Z,3.00
2022-08-07T05:37:40.832Z,2.00
2022-08-07T05:40:17.634Z,2.00
2022-08-07T05:42:55.550Z,3.00
2022-08-07T05:45:46.525Z,3.00
2022-08-07T05:48:16.587Z,2.33
2022-08-07T05:50:47.346Z,2.80
2022-08-07T05:54:12.144Z,3.00
2022-08-07T05:56:13.427Z,3.00
2022-08-07T05:58:52.577Z,2.20
2022-08-07T06:01:24.818Z,3.00
2022-08-07T06:03:58.897Z,3.00
2022-08-07T06:06:32.604Z,1.67
2022-08-07T06:09:04.489Z,3.00
2022-08-07T06:11:39.682Z,3.00
2022-08-07T06:14:11.521Z,2.80
2022-08-07T06:16:50.691Z,3.40
2022-08-07T06:19:47.979Z,3.00
2022-08-07T06:22:23.482Z,3.00
2022-08-07T06:25:01.465Z,1.20
2022-08-07T06:28:00.228Z,2.80
2022-08-07T06:30:31.894Z,2.60
2022-08-07T06:33:16.295Z,3.00
2022-08-07T06:36:06.067Z,3.80
2022-08-07T06:38:37.198Z,2.80
2022-08-07T06:42:01.094Z,2.80
2022-08-07T06:44:34.003Z,2.60
2022-08-07T06:47:10.222Z,3.00
2022-08-07T06:49:51.658Z,3.00
2022-08-07T06:52:36.701Z,2.00
2022-08-07T06:55:31.348Z,3.40
2022-08-07T06:58:11.607Z,2.60
2022-08-07T07:00:43.852Z,2.60
2022-08-07T07:03:17.300Z,2.60
2022-08-07T07:06:04.026Z,2.20
2022-08-07T07:08:36.314Z,3.00
2022-08-07T07:11:14.502Z,3.00
2022-08-07T07:14:02.241Z,3.00
2022-08-07T07:16:45.341Z,2.60
2022-08-07T07:19:56.579Z,3.00
2022-08-07T07:22:36.745Z,3.33
2022-08-07T07:26:32.867Z,3.00
2022-08-07T07:28:42.571Z,3.00
2022-08-07T07:31:21.851Z,4.00
2022-08-07T07:34:00.047Z,3.00
2022-08-07T07:36:32.939Z,2.00
2022-08-07T07:39:05.799Z,2.60
2022-08-07T07:42:01.904Z,2.00
2022-08-07T07:44:29.876Z,4.00
2022-08-07T07:47:13.956Z,3.00
2022-08-07T07:50:33.398Z,3.00
2022-08-07T07:52:40.201Z,4.60
2022-08-07T07:55:11.514Z,4.00
2022-08-07T07:57:52.133Z,4.00
2022-08-07T08:00:29.369Z,2.80
2022-08-07T08:03:16.762Z,2.40
2022-08-07T08:05:59.509Z,2.40
2022-08-07T08:08:36.843Z,3.00
2022-08-07T08:11:16.424Z,3.60
2022-08-07T08:13:54.189Z,3.80
2022-08-07T08:16:40.783Z,2.80
2022-08-07T08:20:17.253Z,2.60
2022-08-07T08:22:37.453Z,3.40
2022-08-07T08:25:49.455Z,3.00
2022-08-07T08:28:38.204Z,3.00
2022-08-07T08:31:22.902Z,3.00
2022-08-07T08:34:04.125Z,3.00
2022-08-07T08:36:36.935Z,4.00
2022-08-07T08:39:10.203Z,2.80
2022-08-07T08:42:02.692Z,2.00
2022-08-07T08:44:44.849Z,2.80
2022-08-07T08:47:32.782Z,3.60
2022-08-07T08:50:54.657Z,4.20
2022-08-07T08:53:45.858Z,3.00
2022-08-07T08:56:37.878Z,2.00
2022-08-07T08:59:42.339Z,4.00
2022-08-07T09:02:46.262Z,2.80
2022-08-07T09:05:48.735Z,2.80
2022-08-07T09:09:09.390Z,3.60
2022-08-07T09:12:30.092Z,3.00
2022-08-07T09:16:25.842Z,2.40
2022-08-07T09:18:22.664Z,3.60
2022-08-07T09:21:33.813Z,3.00
2022-08-07T09:24:55.241Z,3.00
2022-08-07T09:28:02.968Z,3.40
2022-08-07T09:31:10.958Z,4.00
2022-08-07T09:34:27.870Z,3.60
2022-08-07T09:37:48.463Z,3.00
2022-08-07T09:40:54.806Z,2.80
2022-08-07T09:44:05.545Z,1.60
2022-08-07T09:47:59.171Z,3.40
2022-08-07T09:51:25.988Z,4.20
2022-08-07T09:54:03.849Z,4.00
2022-08-07T09:57:13.062Z,3.00
2022-08-07T10:00:14.502Z,3.40
2022-08-07T10:07:24.383Z,4.00
2022-08-07T10:12:00.224Z,4.00
2022-08-07T10:14:23.127Z,3.20
2022-08-07T10:18:00.279Z,3.67
2022-08-07T10:20:51.797Z,3.40
2022-08-07T10:24:06.893Z,3.60
2022-08-07T10:27:17.731Z,5.00
2022-08-07T10:30:18.380Z,4.00
2022-08-07T10:34:05.932Z,3.60
2022-08-07T10:38:00.353Z,3.60
2022-08-07T10:40:35.851Z,5.00
2022-08-07T10:43:36.341Z,4.80
2022-08-07T10:46:20.569Z,5.00
2022-08-07T10:49:49.398Z,3.80
2022-08-07T10:52:51.925Z,1.00
2022-08-07T10:55:58.697Z,4.00
2022-08-07T10:59:30.466Z,4.00
2022-08-07T11:02:32.843Z,2.75
2022-08-07T11:05:48.677Z,3.00
2022-08-07T11:09:11.422Z,5.00
2022-08-07T11:12:02.192Z,3.00
2022-08-07T11:15:00.686Z,3.25
2022-08-07T11:18:12.479Z,3.00
2022-08-07T11:20:57.191Z,3.60
2022-08-07T11:24:10.112Z,3.00
2022-08-07T11:28:02.405Z,4.00
2022-08-07T11:31:11.561Z,5.00
2022-08-07T11:34:22.843Z,4.40
2022-08-07T11:37:13.709Z,4.67
2022-08-07T11:40:22.961Z,4.00
2022-08-07T11:43:54.224Z,4.00
2022-08-07T11:47:13.960Z,3.40
2022-08-07T11:50:44.584Z,2.40
2022-08-07T11:54:22.155Z,4.00
2022-08-07T11:57:12.756Z,4.60
2022-08-07T12:00:11.411Z,4.00
2022-08-07T12:03:41.859Z,5.00
2022-08-07T12:07:03.913Z,3.00
2022-08-07T12:10:19.450Z,4.33
2022-08-07T12:13:11.497Z,4.33
2022-08-07T12:16:09.116Z,4.33
2022-08-07T12:19:14.767Z,4.40
2022-08-07T12:22:38.759Z,3.00
2022-08-07T12:26:05.629Z,5.00
2022-08-07T12:29:37.627Z,5.67
2022-08-07T12:32:34.989Z,5.00
2022-08-07T12:35:09.850Z,4.60
2022-08-07T12:38:10.056Z,6.00
2022-08-07T12:40:48.516Z,6.00
2022-08-07T12:44:02.038Z,5.00
2022-08-07T12:46:57.018Z,6.67
2022-08-07T12:50:05.163Z,7.00
2022-08-07T12:53:17.986Z,6.33
2022-08-07T12:56:22.626Z,6.00
2022-08-07T12:58:57.096Z,6.00
2022-08-07T13:01:36.145Z,6.00
2022-08-07T13:06:03.597Z,7.00
2022-08-07T13:08:30.895Z,6.33
2022-08-07T13:12:03.566Z,5.00
2022-08-07T13:15:03.984Z,5.33
2022-08-07T13:18:26.867Z,5.33
2022-08-07T13:21:59.745Z,4.00
2022-08-07T13:25:30.587Z,5.33
2022-08-07T13:28:39.944Z,5.33
2022-08-07T13:31:26.561Z,4.67
2022-08-07T13:34:37.218Z,6.00
2022-08-07T13:38:01.450Z,5.33
2022-08-07T13:40:51.056Z,6.00
2022-08-07T13:43:24.036Z,3.00
2022-08-07T13:46:21.529Z,4.00
2022-08-07T13:48:58.555Z,6.33
2022-08-07T13:52:22.334Z,6.00
2022-08-07T13:54:33.473Z,6.67
2022-08-07T13:57:09.809Z,6.33
2022-08-07T13:59:55.247Z,5.67
2022-08-07T14:02:33.281Z,6.00
2022-08-07T14:05:16.412Z,6.67
2022-08-07T14:07:59.995Z,6.00
2022-08-07T14:10:42.325Z,5.33
2022-08-07T14:13:22.646Z,6.67
2022-08-07T14:16:15.386Z,5.33
2022-08-07T14:18:56.954Z,1.00
2022-08-07T14:22:03.956Z,3.33
2022-08-07T14:24:49.082Z,6.33
2022-08-07T14:28:10.716Z,5.67
2022-08-07T14:30:32.984Z,4.00
2022-08-07T14:33:05.348Z,6.00
2022-08-07T14:35:45.327Z,6.00
2022-08-07T14:38:30.377Z,4.00
2022-08-07T14:41:05.720Z,7.00
2022-08-07T14:43:55.467Z,5.33
2022-08-07T14:46:33.849Z,4.50
2022-08-07T14:49:17.311Z,6.00
2022-08-07T14:52:03.170Z,6.33
2022-08-07T14:54:54.231Z,7.00
2022-08-07T14:57:55.099Z,6.00
2022-08-07T15:03:19.393Z,7.00
2022-08-07T15:05:54.617Z,6.00
2022-08-07T15:08:54.749Z,6.00
2022-08-07T15:11:50.771Z,6.00
2022-08-07T15:14:25.499Z,7.00
2022-08-07T15:17:12.680Z,5.67
2022-08-07T15:22:55.050Z,6.00
2022-08-07T15:25:36.423Z,5.67
2022-08-07T15:28:34.158Z,7.00
2022-08-07T15:31:05.832Z,4.33
2022-08-07T15:33:42.781Z,7.00
2022-08-07T15:36:13.434Z,6.00
2022-08-07T15:38:51.203Z,5.00
2022-08-07T15:42:43.288Z,5.00
2022-08-07T15:44:24.025Z,6.00
2022-08-07T15:47:09.043Z,6.00
2022-08-07T15:50:05.298Z,5.00
2022-08-07T15:52:40.638Z,5.67
2022-08-07T15:55:18.742Z,5.67
2022-08-07T15:57:53.895Z,6.00
2022-08-07T16:00:40.006Z,4.33
2022-08-07T16:03:47.021Z,5.33
2022-08-07T16:06:13.093Z,6.33
2022-08-07T16:08:48.137Z,5.33
2022-08-07T16:12:12.308Z,5.33
2022-08-07T16:15:56.339Z,5.33
2022-08-07T16:19:17.110Z,7.00
2022-08-07T16:22:55.084Z,6.00
2022-08-07T16:25:52.735Z,7.33
2022-08-07T16:30:06.674Z,6.00
2022-08-07T16:32:34.629Z,7.67
2022-08-07T16:35:51.779Z,5.33
2022-08-07T16:39:33.742Z,7.67
2022-08-07T16:43:07.744Z,7.00
2022-08-07T16:46:47.284Z,5.00
2022-08-07T16:50:20.625Z,2.00
2022-08-07T16:52:51.762Z,3.40
2022-08-07T16:55:47.407Z,0.00
2022-08-07T16:59:14.494Z,4.00
2022-08-07T17:02:50.949Z,4.00
2022-08-07T17:06:01.772Z,3.33
2022-08-07T17:09:09.116Z,4.40
2022-08-07T17:12:34.140Z,5.00
2022-08-07T17:15:44.458Z,4.60
2022-08-07T17:19:03.985Z,3.60
2022-08-07T17:21:53.233Z,3.00
2022-08-07T17:24:53.161Z,4.00
2022-08-07T17:27:50.782Z,3.00
2022-08-07T17:30:26.496Z,3.33
2022-08-07T17:34:09.669Z,4.00
2022-08-07T17:36:33.181Z,3.40
2022-08-07T17:39:58.778Z,3.60
2022-08-07T17:43:17.859Z,4.00
2022-08-07T17:46:18.475Z,3.20
2022-08-07T17:49:52.183Z,2.00
2022-08-07T17:52:55.431Z,3.00
2022-08-07T17:55:56.590Z,4.40
2022-08-07T17:58:56.969Z,3.20
2022-08-07T18:01:40.563Z,3.40
2022-08-07T18:04:52.434Z,3.40
2022-08-07T18:07:34.312Z,4.00
2022-08-07T18:10:33.984Z,4.33
2022-08-07T18:13:23.312Z,3.80
2022-08-07T18:16:32.607Z,2.00
2022-08-07T18:21:05.802Z,3.67
2022-08-07T18:22:50.743Z,3.40
2022-08-07T18:25:40.550Z,3.20
2022-08-07T18:28:34.481Z,2.40
2022-08-07T18:31:18.857Z,3.40
2022-08-07T18:35:00.604Z,3.60
2022-08-07T18:38:58.181Z,5.00
2022-08-07T18:42:19.895Z,2.00
2022-08-07T18:45:42.764Z,3.20
2022-08-07T18:50:05.694Z,3.00
2022-08-07T18:52:38.023Z,2.67
2022-08-07T18:55:41.957Z,3.00
2022-08-07T18:58:51.362Z,4.60
2022-08-07T19:02:32.502Z,3.00
2022-08-07T19:06:04.179Z,3.60
2022-08-07T19:08:54.865Z,4.40
2022-08-07T19:12:20.616Z,4.00
2022-08-07T19:16:05.065Z,2.00
2022-08-07T19:19:13.096Z,3.60
2022-08-07T19:22:14.902Z,4.00
2022-08-07T19:24:50.324Z,2.80
2022-08-07T19:28:56.655Z,3.40
2022-08-07T19:31:01.705Z,2.00
2022-08-07T19:33:15.613Z,4.00
2022-08-07T19:35:56.961Z,4.00
2022-08-07T19:38:30.367Z,3.60
2022-08-07T19:41:00.971Z,4.00
2022-08-07T19:43:50.123Z,3.40
2022-08-07T19:46:33.635Z,3.20
2022-08-07T19:49:57.845Z,3.00
2022-08-07T19:52:19.743Z,2.60
2022-08-07T19:54:56.337Z,4.00
2022-08-07T19:58:02.349Z,3.00
2022-08-07T20:00:34.775Z,3.00
2022-08-07T20:03:34.647Z,3.00
2022-08-07T20:06:04.593Z,4.00
2022-08-07T20:08:40.957Z,3.20
2022-08-07T20:11:23.263Z,3.60
2022-08-07T20:14:31.649Z,2.60
2022-08-07T20:17:05.835Z,3.00
2022-08-07T20:19:47.662Z,3.00
2022-08-07T20:22:29.143Z,3.20
2022-08-07T20:25:12.519Z,3.40
2022-08-07T20:27:58.604Z,4.00
2022-08-07T20:30:42.930Z,3.00
2022-08-07T20:33:36.731Z,3.60
2022-08-07T20:36:11.013Z,3.00
2022-08-07T20:39:00.088Z,2.60
2022-08-07T20:41:40.783Z,3.00
2022-08-07T20:44:13.030Z,2.60
2022-08-07T20:46:46.756Z,2.00
2022-08-07T20:50:00.247Z,2.40
2022-08-07T20:52:51.517Z,3.00
2022-08-07T20:55:24.446Z,2.60
2022-08-07T20:58:03.447Z,3.60
2022-08-07T21:00:44.583Z,3.20
2022-08-07T21:03:23.183Z,2.20
2022-08-07T21:06:21.698Z,2.00
2022-08-07T21:09:13.987Z,1.67
2022-08-07T21:11:50.005Z,2.00
2022-08-07T21:14:33.886Z,2.60
2022-08-07T21:18:02.093Z,2.60
2022-08-07T21:20:09.834Z,2.00
2022-08-07T21:22:51.200Z,2.00
2022-08-07T21:25:50.942Z,2.00
2022-08-07T21:28:52.843Z,1.60
2022-08-07T21:32:47.866Z,2.00
2022-08-07T21:35:11.275Z,2.20
2022-08-07T21:38:11.804Z,2.60
2022-08-07T21:41:52.421Z,1.60
2022-08-07T21:46:03.294Z,2.33
2022-08-07T21:48:29.075Z,2.00
2022-08-07T21:51:32.261Z,1.00
2022-08-07T21:54:53.371Z,1.60
2022-08-07T21:57:44.823Z,2.00
2022-08-07T22:00:26.105Z,1.67
2022-08-07T22:03:30.772Z,1.67
2022-08-07T22:06:49.837Z,2.00
2022-08-07T22:09:25.834Z,2.00
2022-08-07T22:12:24.983Z,2.00
2022-08-07T22:16:39.028Z,2.00
2022-08-07T22:19:07.396Z,2.00
2022-08-07T22:22:18.222Z,1.67
2022-08-07T22:25:36.617Z,1.00
2022-08-07T22:28:37.895Z,1.00
2022-08-07T22:31:59.615Z,2.00
2022-08-07T22:34:54.828Z,2.00
2022-08-07T22:38:11.050Z,2.00
2022-08-07T22:41:11.896Z,2.00
2022-08-07T22:43:52.373Z,2.00
2022-08-07T22:47:03.859Z,2.67
2022-08-07T22:50:20.813Z,2.00
2022-08-07T22:54:07.801Z,1.00
2022-08-07T22:57:17.110Z,2.00
2022-08-07T23:00:04.029Z,2.00
2022-08-07T23:03:13.332Z,1.00
2022-08-07T23:06:30.577Z,1.67
2022-08-07T23:10:04.074Z,1.00
2022-08-07T23:12:46.069Z,2.33
2022-08-07T23:16:05.697Z,1.67
2022-08-07T23:19:51.446Z,2.00
2022-08-07T23:22:42.471Z,2.00
2022-08-07T23:25:56.705Z,1.67
2022-08-07T23:28:44.242Z,1.67
2022-08-07T23:34:20.880Z,1.67
2022-08-07T23:34:40.791Z,1.67
2022-08-07T23:38:05.749Z,1.67
2022-08-07T23:41:47.700Z,2.00
2022-08-07T23:46:10.835Z,2.00
2022-08-07T23:49:50.635Z,2.00
2022-08-07T23:53:15.483Z,2.00
2022-08-07T23:56:21.452Z,3.00
